createdAt,value
2023-02-23T00:02:07.427Z,49.63
2023-02-23T00:04:38.402Z,41.33
2023-02-23T00:07:08.564Z,38.08
2023-02-23T00:09:38.780Z,42.03
2023-02-23T00:12:14.091Z,39.38
2023-02-23T00:14:44.183Z,43.67
2023-02-23T00:17:14.952Z,40.30
2023-02-23T00:19:49.449Z,40.70
2023-02-23T00:22:19.650Z,41.65
2023-02-23T00:24:50.322Z,39.72
2023-02-23T00:27:21.250Z,53.20
2023-02-23T00:29:51.602Z,46.88
2023-02-23T00:32:21.831Z,46.30
2023-02-23T00:34:52.430Z,48.35
2023-02-23T00:37:23.148Z,50.00
2023-02-23T00:39:57.096Z,45.63
2023-02-23T00:42:32.236Z,48.15
2023-02-23T00:45:08.239Z,43.65
2023-02-23T00:47:37.206Z,57.40
2023-02-23T00:50:06.517Z,50.90
2023-02-23T00:52:33.685Z,46.28
2023-02-23T00:55:02.089Z,51.20
2023-02-23T00:57:30.445Z,46.10
2023-02-23T00:59:58.915Z,46.75
2023-02-23T01:02:31.718Z,48.60
2023-02-23T01:05:01.805Z,47.22
2023-02-23T01:07:31.874Z,43.95
2023-02-23T01:10:01.982Z,44.88
2023-02-23T01:12:32.013Z,46.20
2023-02-23T01:15:03.634Z,52.88
2023-02-23T01:17:33.815Z,54.47
2023-02-23T01:20:15.677Z,54.92
2023-02-23T01:22:50.137Z,49.17
2023-02-23T01:25:20.555Z,49.60
2023-02-23T01:27:50.617Z,46.92
2023-02-23T01:30:21.926Z,56.08
2023-02-23T01:32:52.476Z,50.92
2023-02-23T01:35:23.539Z,46.85
2023-02-23T01:37:53.607Z,50.20
2023-02-23T01:40:30.286Z,54.13
2023-02-23T01:43:21.090Z,47.25
2023-02-23T01:45:51.276Z,46.80
2023-02-23T01:48:36.682Z,50.95
2023-02-23T01:51:18.560Z,49.80
2023-02-23T01:54:09.947Z,56.55
2023-02-23T01:56:58.140Z,57.20
2023-02-23T01:59:45.950Z,63.90
2023-02-23T02:02:19.300Z,54.50
2023-02-23T02:04:52.266Z,47.30
2023-02-23T02:07:29.343Z,52.65
2023-02-23T02:10:12.601Z,53.03
2023-02-23T02:12:57.870Z,48.92
2023-02-23T02:15:40.183Z,58.15
2023-02-23T02:18:57.269Z,52.60
2023-02-23T02:22:22.231Z,50.95
2023-02-23T02:25:19.588Z,52.35
2023-02-23T02:28:39.222Z,44.35
2023-02-23T02:31:55.773Z,51.25
2023-02-23T02:34:46.667Z,48.83
2023-02-23T02:38:10.906Z,45.13
2023-02-23T02:41:03.888Z,51.65
2023-02-23T02:43:47.684Z,49.70
2023-02-23T02:46:31.238Z,49.28
2023-02-23T02:49:26.720Z,49.10
2023-02-23T02:52:25.496Z,53.70
2023-02-23T02:55:25.742Z,49.15
2023-02-23T02:58:02.368Z,48.90
2023-02-23T03:01:08.603Z,50.83
2023-02-23T03:04:04.934Z,51.50
2023-02-23T03:07:19.606Z,46.92
2023-02-23T03:10:32.390Z,50.72
2023-02-23T03:14:02.263Z,52.70
2023-02-23T03:17:51.069Z,45.75
2023-02-23T03:20:52.097Z,49.25
2023-02-23T03:24:15.561Z,50.92
2023-02-23T03:27:24.192Z,55.10
2023-02-23T03:31:09.675Z,56.38
2023-02-23T03:34:33.359Z,52.50
2023-02-23T03:38:00.382Z,43.10
2023-02-23T03:40:58.805Z,57.50
2023-02-23T03:44:03.528Z,49.92
2023-02-23T03:46:58.070Z,55.28
2023-02-23T03:49:55.919Z,48.83
2023-02-23T03:53:09.825Z,54.08
2023-02-23T03:56:08.648Z,60.67
2023-02-23T03:59:14.171Z,42.97
2023-02-23T04:02:05.416Z,47.13
2023-02-23T04:04:57.326Z,60.30
2023-02-23T04:07:48.538Z,49.88
2023-02-23T04:10:37.177Z,43.17
2023-02-23T04:13:31.704Z,43.25
2023-02-23T04:16:12.230Z,50.05
2023-02-23T04:18:42.761Z,49.75
2023-02-23T04:21:13.001Z,51.85
2023-02-23T04:23:43.645Z,55.33
2023-02-23T04:26:13.766Z,49.75
2023-02-23T04:28:43.919Z,51.55
2023-02-23T04:31:14.018Z,42.97
2023-02-23T04:33:44.239Z,49.35
2023-02-23T04:36:14.280Z,49.95
2023-02-23T04:38:44.429Z,50.78
2023-02-23T04:41:14.431Z,53.58
2023-02-23T04:43:42.903Z,53.17
2023-02-23T04:46:11.443Z,56.30
2023-02-23T04:48:40.225Z,54.88
2023-02-23T04:51:08.487Z,46.53
2023-02-23T04:53:38.388Z,50.20
2023-02-23T04:56:08.261Z,56.50
2023-02-23T04:58:36.546Z,54.30
2023-02-23T05:01:12.517Z,50.55
2023-02-23T05:03:42.595Z,45.30
2023-02-23T05:06:12.861Z,51.28
2023-02-23T05:08:43.287Z,57.33
2023-02-23T05:11:13.905Z,54.03
2023-02-23T05:13:44.025Z,48.10
2023-02-23T05:16:14.185Z,51.25
2023-02-23T05:18:44.286Z,52.13
2023-02-23T05:21:14.554Z,50.80
2023-02-23T05:23:45.373Z,48.38
2023-02-23T05:26:15.868Z,53.42
2023-02-23T05:28:46.063Z,53.28
2023-02-23T05:31:17.563Z,48.05
2023-02-23T05:33:47.908Z,45.30
2023-02-23T05:36:21.942Z,53.25
2023-02-23T05:38:52.049Z,56.17
2023-02-23T05:41:23.851Z,51.28
2023-02-23T05:43:55.956Z,47.33
2023-02-23T05:46:28.076Z,56.42
2023-02-23T05:49:01.622Z,52.17
2023-02-23T05:51:35.025Z,57.70
2023-02-23T05:54:05.784Z,45.55
2023-02-23T05:56:33.847Z,45.15
2023-02-23T05:59:04.951Z,53.72
2023-02-23T06:01:34.997Z,55.35
2023-02-23T06:04:06.354Z,45.20
2023-02-23T06:06:36.576Z,46.67
2023-02-23T06:09:06.925Z,43.58
2023-02-23T06:11:37.211Z,52.95
2023-02-23T06:14:07.302Z,49.20
2023-02-23T06:16:38.231Z,47.78
2023-02-23T06:19:08.036Z,48.50
2023-02-23T06:21:38.227Z,43.58
2023-02-23T06:24:08.393Z,50.55
2023-02-23T06:26:38.561Z,57.28
2023-02-23T06:29:08.590Z,55.95
2023-02-23T06:31:39.678Z,51.10
2023-02-23T06:34:10.288Z,50.08
2023-02-23T06:36:40.304Z,42.65
2023-02-23T06:39:12.957Z,58.42
2023-02-23T06:41:41.738Z,49.15
2023-02-23T06:44:11.847Z,52.60
2023-02-23T06:46:42.024Z,53.72
2023-02-23T06:49:14.418Z,47.47
2023-02-23T06:51:45.315Z,48.55
2023-02-23T06:54:12.604Z,55.83
2023-02-23T06:56:42.745Z,57.08
2023-02-23T06:59:12.786Z,50.30
2023-02-23T07:01:44.913Z,57.88
2023-02-23T07:04:16.665Z,49.97
2023-02-23T07:06:44.479Z,56.35
2023-02-23T07:09:15.619Z,60.17
2023-02-23T07:11:44.998Z,70.93
2023-02-23T07:14:21.514Z,55.67
2023-02-23T07:16:56.582Z,53.70
2023-02-23T07:19:26.718Z,57.05
2023-02-23T07:21:55.517Z,50.97
2023-02-23T07:24:23.670Z,51.63
2023-02-23T07:26:52.457Z,52.92
2023-02-23T07:29:20.974Z,42.55
2023-02-23T07:31:50.189Z,45.88
2023-02-23T07:34:17.900Z,53.13
2023-02-23T07:36:46.161Z,44.33
2023-02-23T07:39:14.657Z,47.65
2023-02-23T07:41:43.047Z,48.13
2023-02-23T07:44:11.373Z,42.95
2023-02-23T07:46:39.866Z,52.20
2023-02-23T07:49:08.159Z,51.00
2023-02-23T07:51:36.528Z,47.28
2023-02-23T07:54:06.635Z,45.63
2023-02-23T07:56:36.994Z,43.53
2023-02-23T07:59:06.537Z,41.80
2023-02-23T08:01:36.616Z,49.05
2023-02-23T08:04:07.119Z,43.60
2023-02-23T08:06:37.160Z,42.65
2023-02-23T08:09:07.897Z,47.97
2023-02-23T08:11:37.847Z,48.08
2023-02-23T08:14:07.942Z,48.50
2023-02-23T08:16:38.033Z,48.63
2023-02-23T08:19:08.117Z,51.00
2023-02-23T08:21:38.355Z,47.90
2023-02-23T08:24:08.989Z,48.25
2023-02-23T08:26:39.253Z,48.35
2023-02-23T08:29:10.233Z,41.80
2023-02-23T08:31:39.669Z,53.65
2023-02-23T08:34:10.441Z,44.05
2023-02-23T08:36:40.693Z,46.35
2023-02-23T08:39:11.734Z,49.60
2023-02-23T08:41:42.582Z,43.05
2023-02-23T08:44:11.821Z,46.67
2023-02-23T08:46:41.980Z,47.58
2023-02-23T08:49:12.103Z,46.88
2023-02-23T08:51:43.122Z,48.97
2023-02-23T08:54:15.257Z,48.28
2023-02-23T08:56:45.310Z,40.35
2023-02-23T08:59:16.449Z,45.35
2023-02-23T09:01:45.287Z,45.78
2023-02-23T09:04:15.344Z,48.75
2023-02-23T09:06:50.266Z,46.60
2023-02-23T09:09:20.010Z,53.50
2023-02-23T09:11:47.637Z,51.72
2023-02-23T09:14:17.796Z,47.05
2023-02-23T09:16:48.559Z,46.58
2023-02-23T09:19:18.240Z,47.15
2023-02-23T09:21:48.324Z,46.80
2023-02-23T09:24:18.689Z,44.42
2023-02-23T09:26:46.455Z,49.33
2023-02-23T09:29:15.171Z,51.90
2023-02-23T09:31:43.882Z,44.38
2023-02-23T09:34:13.468Z,42.35
2023-02-23T09:36:43.257Z,48.47
2023-02-23T09:39:11.717Z,47.28
2023-02-23T09:42:03.853Z,39.45
2023-02-23T09:44:52.587Z,40.75
2023-02-23T09:48:03.044Z,38.75
2023-02-23T09:50:39.388Z,44.00
2023-02-23T09:53:43.127Z,50.53
2023-02-23T09:56:41.340Z,48.10
2023-02-23T09:59:20.854Z,44.17
2023-02-23T10:01:48.845Z,39.70
2023-02-23T10:04:32.487Z,41.78
2023-02-23T10:07:30.306Z,43.33
2023-02-23T10:10:28.168Z,40.42
2023-02-23T10:13:54.060Z,38.72
2023-02-23T10:17:03.987Z,39.95
2023-02-23T10:23:04.778Z,43.92
2023-02-23T10:25:46.251Z,39.08
2023-02-23T10:28:21.966Z,35.22
2023-02-23T10:30:56.871Z,41.83
2023-02-23T10:33:42.561Z,45.15
2023-02-23T10:36:36.088Z,43.08
2023-02-23T10:39:12.479Z,37.33
2023-02-23T10:41:44.432Z,33.72
2023-02-23T10:44:26.662Z,50.08
2023-02-23T10:47:18.017Z,40.65
2023-02-23T10:49:54.914Z,38.15
2023-02-23T10:52:41.866Z,39.78
2023-02-23T10:55:31.049Z,39.65
2023-02-23T10:58:21.471Z,39.92
2023-02-23T11:03:57.695Z,36.90
2023-02-23T11:06:43.668Z,46.45
2023-02-23T11:09:43.197Z,44.72
2023-02-23T11:12:41.996Z,40.10
2023-02-23T11:15:49.479Z,42.40
2023-02-23T11:18:26.522Z,42.72
2023-02-23T11:20:58.519Z,46.35
2023-02-23T11:23:36.690Z,45.97
2023-02-23T11:26:45.717Z,42.53
2023-02-23T11:29:40.542Z,50.13
2023-02-23T11:32:19.714Z,49.25
2023-02-23T11:35:20.499Z,38.42
2023-02-23T11:37:50.645Z,38.45
2023-02-23T11:40:35.018Z,41.75
2023-02-23T11:43:16.721Z,44.78
2023-02-23T11:45:58.482Z,47.45
2023-02-23T11:49:01.889Z,43.20
2023-02-23T11:51:39.873Z,48.17
2023-02-23T11:54:35.608Z,44.25
2023-02-23T11:57:06.363Z,49.38
2023-02-23T11:59:44.962Z,44.97
2023-02-23T12:02:28.713Z,43.63
2023-02-23T12:05:18.320Z,41.67
2023-02-23T12:08:14.846Z,42.65
2023-02-23T12:10:58.167Z,47.22
2023-02-23T12:13:45.402Z,50.72
2023-02-23T12:16:33.597Z,44.80
2023-02-23T12:19:23.027Z,41.33
2023-02-23T12:22:20.267Z,40.60
2023-02-23T12:25:05.144Z,39.55
2023-02-23T12:28:18.815Z,42.05
2023-02-23T12:31:14.427Z,44.30
2023-02-23T12:34:05.355Z,43.67
2023-02-23T12:37:14.350Z,42.42
2023-02-23T12:39:55.056Z,51.95
2023-02-23T12:42:38.300Z,44.30
2023-02-23T12:45:27.327Z,39.30
2023-02-23T12:48:34.902Z,46.92
2023-02-23T12:51:30.432Z,44.08
2023-02-23T12:54:02.201Z,40.75
2023-02-23T12:57:32.470Z,41.20
2023-02-23T13:00:49.511Z,42.92
2023-02-23T13:03:53.017Z,47.15
2023-02-23T13:06:59.582Z,51.45
2023-02-23T13:10:15.299Z,41.65
2023-02-23T13:13:18.019Z,44.22
2023-02-23T13:16:06.607Z,44.38
2023-02-23T13:19:16.798Z,40.42
2023-02-23T13:22:01.827Z,45.38
2023-02-23T13:24:49.769Z,48.70
2023-02-23T13:27:40.412Z,45.22
2023-02-23T13:30:13.506Z,44.38
2023-02-23T13:32:42.098Z,45.53
2023-02-23T13:35:21.795Z,40.40
2023-02-23T13:38:18.055Z,45.25
2023-02-23T13:41:30.454Z,45.50
2023-02-23T13:44:32.437Z,42.08
2023-02-23T13:47:45.670Z,47.60
2023-02-23T13:50:37.811Z,43.92
2023-02-23T13:53:40.187Z,43.88
2023-02-23T13:56:27.237Z,43.78
2023-02-23T13:59:17.240Z,45.38
2023-02-23T14:01:55.245Z,45.65
2023-02-23T14:04:42.528Z,48.13
2023-02-23T14:07:33.020Z,48.10
2023-02-23T14:10:43.169Z,46.63
2023-02-23T14:13:16.573Z,45.67
2023-02-23T14:16:12.192Z,49.65
2023-02-23T14:19:38.357Z,50.00
2023-02-23T14:22:22.268Z,47.65
2023-02-23T14:25:35.512Z,47.67
2023-02-23T14:28:32.583Z,46.22
2023-02-23T14:31:12.717Z,52.00
2023-02-23T14:33:42.778Z,51.13
2023-02-23T14:36:21.611Z,57.95
2023-02-23T14:41:47.116Z,58.17
2023-02-23T14:44:41.416Z,62.88
2023-02-23T14:47:22.425Z,62.72
2023-02-23T14:52:42.748Z,69.57
2023-02-23T14:55:29.253Z,73.65
2023-02-23T14:58:01.790Z,77.60
2023-02-23T15:00:43.906Z,76.60
2023-02-23T15:03:14.058Z,72.00
2023-02-23T15:05:54.937Z,75.35
2023-02-23T15:08:31.271Z,72.03
2023-02-23T15:11:14.818Z,75.05
2023-02-23T15:13:52.298Z,86.55
2023-02-23T15:16:37.972Z,83.78
2023-02-23T15:19:08.196Z,80.97
2023-02-23T15:21:39.844Z,90.47
2023-02-23T15:24:21.420Z,89.13
2023-02-23T15:26:52.677Z,88.47
2023-02-23T15:29:33.912Z,85.30
2023-02-23T15:32:26.510Z,86.20
2023-02-23T15:34:56.226Z,82.50
2023-02-23T15:37:56.587Z,96.45
2023-02-23T15:40:36.784Z,96.10
2023-02-23T15:43:12.238Z,89.72
2023-02-23T15:45:54.753Z,97.70
2023-02-23T15:48:46.205Z,95.88
2023-02-23T15:51:39.978Z,98.53
2023-02-23T15:54:29.892Z,93.40
2023-02-23T15:57:18.201Z,89.57
2023-02-23T15:59:54.658Z,93.75
2023-02-23T16:02:26.094Z,94.10
2023-02-23T16:04:54.046Z,99.82
2023-02-23T16:07:36.289Z,101.82
2023-02-23T16:10:24.633Z,98.85
2023-02-23T16:12:55.673Z,97.82
2023-02-23T16:15:35.542Z,103.25
2023-02-23T16:18:16.638Z,93.32
2023-02-23T16:20:58.079Z,104.03
2023-02-23T16:24:05.907Z,97.70
2023-02-23T16:26:52.078Z,96.05
2023-02-23T16:29:41.626Z,101.88
2023-02-23T16:32:25.036Z,105.97
2023-02-23T16:35:18.105Z,99.10
2023-02-23T16:38:12.774Z,108.55
2023-02-23T16:40:43.042Z,100.93
2023-02-23T16:43:13.190Z,104.65
2023-02-23T16:45:44.654Z,101.05
2023-02-23T16:48:19.442Z,112.53
2023-02-23T16:50:53.831Z,105.18
2023-02-23T16:53:24.010Z,103.22
2023-02-23T16:56:01.073Z,105.95
2023-02-23T16:58:36.152Z,106.15
2023-02-23T17:01:07.226Z,106.05
2023-02-23T17:03:43.724Z,98.82
2023-02-23T17:06:16.089Z,108.85
2023-02-23T17:08:57.234Z,108.50
2023-02-23T17:11:28.071Z,95.70
2023-02-23T17:13:58.080Z,99.32
2023-02-23T17:16:28.264Z,106.18
2023-02-23T17:19:02.061Z,113.30
2023-02-23T17:21:33.947Z,110.40
2023-02-23T17:24:04.402Z,107.20
2023-02-23T17:26:34.557Z,111.55
2023-02-23T17:29:04.601Z,101.22
2023-02-23T17:31:36.142Z,107.75
2023-02-23T17:34:07.333Z,99.60
2023-02-23T17:36:34.511Z,104.35
2023-02-23T17:39:03.373Z,105.13
2023-02-23T17:41:31.097Z,110.45
2023-02-23T17:43:58.347Z,112.10
2023-02-23T17:46:26.753Z,106.55
2023-02-23T17:48:56.240Z,103.07
2023-02-23T17:51:24.090Z,109.70
2023-02-23T17:53:52.346Z,96.70
2023-02-23T17:56:20.861Z,110.65
2023-02-23T17:58:48.948Z,111.50
2023-02-23T18:01:18.127Z,118.25
2023-02-23T18:03:47.854Z,112.00
2023-02-23T18:06:17.354Z,111.50
2023-02-23T18:08:45.924Z,114.15
2023-02-23T18:11:16.562Z,122.85
2023-02-23T18:13:48.175Z,113.03
2023-02-23T18:16:19.641Z,148.88
2023-02-23T18:18:49.423Z,126.65
2023-02-23T18:21:22.490Z,124.13
2023-02-23T18:23:52.249Z,130.25
2023-02-23T18:26:24.430Z,125.15
2023-02-23T18:28:55.985Z,132.32
2023-02-23T18:31:28.551Z,139.85
2023-02-23T18:34:01.639Z,132.93
2023-02-23T18:36:37.645Z,126.35
2023-02-23T18:39:10.807Z,136.25
2023-02-23T18:41:41.821Z,138.38
2023-02-23T18:44:16.681Z,127.03
2023-02-23T18:46:46.905Z,126.95
2023-02-23T18:49:24.759Z,125.90
2023-02-23T18:51:54.881Z,135.95
2023-02-23T18:54:28.329Z,132.15
2023-02-23T18:56:58.430Z,135.20
2023-02-23T18:59:28.512Z,130.50
2023-02-23T19:01:58.600Z,128.13
2023-02-23T19:04:28.739Z,135.77
2023-02-23T19:06:58.774Z,137.48
2023-02-23T19:09:28.840Z,132.82
2023-02-23T19:11:58.935Z,120.68
2023-02-23T19:14:47.999Z,128.57
2023-02-23T19:17:19.193Z,124.75
2023-02-23T19:19:49.233Z,120.50
2023-02-23T19:22:19.259Z,132.77
2023-02-23T19:24:50.103Z,128.98
2023-02-23T19:27:21.816Z,134.60
2023-02-23T19:29:51.926Z,113.60
2023-02-23T19:32:22.163Z,119.75
2023-02-23T19:34:52.292Z,126.18
2023-02-23T19:37:22.418Z,127.05
2023-02-23T19:39:54.017Z,122.68
2023-02-23T19:42:24.275Z,124.75
2023-02-23T19:44:54.792Z,113.05
2023-02-23T19:47:24.920Z,111.75
2023-02-23T19:49:55.065Z,115.07
2023-02-23T19:52:25.172Z,114.47
2023-02-23T19:54:55.265Z,106.35
2023-02-23T19:57:25.332Z,114.22
2023-02-23T19:59:55.419Z,111.85
2023-02-23T20:02:23.906Z,108.15
2023-02-23T20:04:52.391Z,109.25
2023-02-23T20:07:20.710Z,104.65
2023-02-23T20:09:49.076Z,98.95
2023-02-23T20:12:17.750Z,98.05
2023-02-23T20:14:47.361Z,97.93
2023-02-23T20:17:17.760Z,87.63
2023-02-23T20:19:45.880Z,83.57
2023-02-23T20:22:14.332Z,85.65
2023-02-23T20:24:42.947Z,74.50
2023-02-23T20:27:11.599Z,82.32
2023-02-23T20:29:41.684Z,70.82
2023-02-23T20:32:11.810Z,69.13
2023-02-23T20:34:42.183Z,66.57
2023-02-23T20:37:13.044Z,65.80
2023-02-23T20:39:43.134Z,67.20
2023-02-23T20:42:16.677Z,64.25
2023-02-23T20:44:46.807Z,53.67
2023-02-23T20:47:16.926Z,53.17
2023-02-23T20:49:46.965Z,57.63
2023-02-23T20:52:17.196Z,54.72
2023-02-23T20:54:47.230Z,55.42
2023-02-23T20:57:17.270Z,57.35
2023-02-23T20:59:47.324Z,63.15
2023-02-23T21:02:17.372Z,74.50
2023-02-23T21:04:47.440Z,70.22
2023-02-23T21:07:17.558Z,74.78
2023-02-23T21:09:47.646Z,75.80
2023-02-23T21:12:18.044Z,89.03
2023-02-23T21:14:48.988Z,85.28
2023-02-23T21:17:19.657Z,75.97
2023-02-23T21:19:49.736Z,88.20
2023-02-23T21:22:19.979Z,87.50
2023-02-23T21:24:50.040Z,95.82
2023-02-23T21:27:18.849Z,85.78
2023-02-23T21:29:48.245Z,85.75
2023-02-23T21:32:16.921Z,92.20
2023-02-23T21:34:45.968Z,92.15
2023-02-23T21:37:16.372Z,96.35
2023-02-23T21:39:46.740Z,81.05
2023-02-23T21:42:17.219Z,94.20
2023-02-23T21:44:48.298Z,94.50
2023-02-23T21:47:17.574Z,94.25
2023-02-23T21:49:49.255Z,92.18
2023-02-23T21:52:19.411Z,89.38
2023-02-23T21:54:51.880Z,91.85
2023-02-23T21:57:26.274Z,88.72
2023-02-23T21:59:56.744Z,81.43
2023-02-23T22:02:30.648Z,94.90
2023-02-23T22:05:00.889Z,89.15
2023-02-23T22:07:32.464Z,79.53
2023-02-23T22:10:00.994Z,84.18
2023-02-23T22:12:32.755Z,80.22
2023-02-23T22:15:08.338Z,100.30
2023-02-23T22:17:38.886Z,85.05
2023-02-23T22:20:12.419Z,91.47
2023-02-23T22:22:40.254Z,84.22
2023-02-23T22:25:11.476Z,88.95
2023-02-23T22:27:42.859Z,86.55
2023-02-23T22:30:15.770Z,85.95
2023-02-23T22:32:45.654Z,87.20
2023-02-23T22:35:16.136Z,83.20
2023-02-23T22:37:46.245Z,85.90
2023-02-23T22:40:16.798Z,80.95
2023-02-23T22:42:48.488Z,88.32
2023-02-23T22:45:19.091Z,88.75
2023-02-23T22:47:49.088Z,82.65
2023-02-23T22:50:19.356Z,84.38
2023-02-23T22:52:49.536Z,84.05
2023-02-23T22:55:19.433Z,78.60
2023-02-23T22:57:49.638Z,86.78
2023-02-23T23:00:19.858Z,82.38
2023-02-23T23:02:50.215Z,90.78
2023-02-23T23:05:21.752Z,85.10
2023-02-23T23:07:51.937Z,92.95
2023-02-23T23:10:20.224Z,86.97
2023-02-23T23:12:48.926Z,93.35
2023-02-23T23:15:19.313Z,93.57
2023-02-23T23:17:50.030Z,95.28
2023-02-23T23:20:25.990Z,96.63
2023-02-23T23:22:57.342Z,76.45
2023-02-23T23:25:29.647Z,88.45
2023-02-23T23:27:59.617Z,80.10
2023-02-23T23:30:29.358Z,104.07
2023-02-23T23:33:00.118Z,89.68
2023-02-23T23:35:28.745Z,80.28
2023-02-23T23:38:01.718Z,86.97
2023-02-23T23:40:35.807Z,88.78
2023-02-23T23:43:07.807Z,88.03
2023-02-23T23:45:40.673Z,91.80
2023-02-23T23:48:09.967Z,82.43
2023-02-23T23:50:39.865Z,80.00
2023-02-23T23:53:10.582Z,78.90
2023-02-23T23:55:38.491Z,84.72
2023-02-23T23:58:07.064Z,90.07
